Airport View

Enter AWOS ICAO identifier for current METAR.

ex. KFNL

KDCA 212252Z 13006KT 10SM BKN075 BKN250 27/19 A3015 RMK AO2 SLP211 T02720194

21 Sep 2019 23:25

Frequency: 132.65

Phone: 703-412-8140

Other Area AWOS: KADW - KCGS - KDAA - KFME

TAF AMD KDCA 212058Z 2121/2224 16006KT P6SM FEW060 FEW250 FM220400 19004KT P6SM FEW200 FM221800 18007KT P6SM FEW060 SCT200